EKCH/CPH METAR and TAF weather

Enter ICAO airport designator
Station Type Date Time Source
EKCH METAR 2019/10/21 04:50 UTC NOAA

EKCH 210450Z 06004KT 4000 BR NSC 11/11 Q1017 BECMG 6000


Station Type Date Time Source
EKCH Decoded METAR 2019/10/21 04:50 UTC NOAA

Koebenhavn / Kastrup, Denmark (EKCH) 55-37N 012-39E 5M
Oct 21, 2019 - 12:50 AM EDT / 2019.10.21 0450 UTC
Wind: from the ENE (060 degrees) at 5 MPH (4 KT):0
Visibility: 2 mile(s):0
Weather: mist
Temperature: 51 F (11 C)
Dew Point: 51 F (11 C)
Relative Humidity: 100%
Pressure (altimeter): 30.03 in. Hg (1017 hPa)
ob: EKCH 210450Z 06004KT 4000 BR NSC 11/11 Q1017 BECMG 6000
cycle: 5

Station Type Date Time Source
EKCH TAF 2019/10/21 03:08 UTC NOAA

TAF
AMD EKCH 210303Z 2103/2124 06005KT 6000 SCT020
TEMPO 2103/2105 1200 BCFG BKN002
TEMPO 2110/2118 4000 -RADZ BKN012
BECMG 2118/2121 13010KT 4000 BR BKN008
TEMPO 2121/2124 8000 NSW BKN018

Example: see airport list